createdAt,value
2019-03-16T00:01:16.953Z,99966.97
2019-03-16T00:03:48.991Z,99958.06
2019-03-16T00:06:22.572Z,99965.60
2019-03-16T00:08:54.532Z,99985.19
2019-03-16T00:11:26.553Z,99968.83
2019-03-16T00:13:58.505Z,99975.49
2019-03-16T00:16:30.598Z,99976.54
2019-03-16T00:19:02.550Z,99983.47
2019-03-16T00:21:34.487Z,99995.30
2019-03-16T00:24:06.747Z,99987.54
2019-03-16T00:26:38.688Z,99995.03
2019-03-16T00:29:10.663Z,100013.11
2019-03-16T00:31:42.629Z,100009.61
2019-03-16T00:34:14.577Z,100021.48
2019-03-16T00:36:46.543Z,100011.53
2019-03-16T00:39:18.493Z,100015.70
2019-03-16T00:41:56.265Z,100036.73
2019-03-16T00:44:28.210Z,100032.39
2019-03-16T00:47:00.182Z,100039.84
2019-03-16T00:49:32.135Z,100042.73
2019-03-16T00:52:04.510Z,100061.48
2019-03-16T00:54:36.781Z,100057.47
2019-03-16T00:57:09.052Z,100068.23
2019-03-16T00:59:41.157Z,100072.97
2019-03-16T01:02:26.221Z,100084.29
2019-03-16T01:04:46.786Z,100077.89
2019-03-16T01:07:18.751Z,100084.42
2019-03-16T01:09:50.705Z,100079.51
2019-03-16T01:12:22.676Z,100086.37
2019-03-16T01:14:54.633Z,100080.15
2019-03-16T01:17:26.591Z,100103.12
2019-03-16T01:19:58.546Z,100091.40
2019-03-16T01:22:30.494Z,100100.39
2019-03-16T01:25:02.822Z,100102.63
2019-03-16T01:27:34.785Z,100104.21
2019-03-16T01:30:17.421Z,100101.14
2019-03-16T01:32:49.454Z,100105.37
2019-03-16T01:35:21.413Z,100113.30
2019-03-16T01:37:53.610Z,100106.28
2019-03-16T01:40:25.638Z,100114.81
2019-03-16T01:42:57.587Z,100114.74
2019-03-16T01:45:29.907Z,100124.72
2019-03-16T01:48:02.172Z,100131.28
2019-03-16T01:50:34.725Z,100138.38
2019-03-16T01:53:06.749Z,100154.11
2019-03-16T01:55:38.871Z,100144.80
2019-03-16T01:58:10.826Z,100149.86
2019-03-16T02:00:42.873Z,100155.49
2019-03-16T02:03:15.077Z,100162.86
2019-03-16T02:05:47.096Z,100160.08
2019-03-16T02:08:19.119Z,100172.56
2019-03-16T02:10:51.131Z,100181.08
2019-03-16T02:13:23.091Z,100183.72
2019-03-16T02:15:55.062Z,100190.56
2019-03-16T02:18:27.016Z,100176.67
2019-03-16T02:20:58.993Z,100200.95
2019-03-16T02:23:30.960Z,100189.47
2019-03-16T02:26:02.909Z,100194.71
2019-03-16T02:28:34.887Z,100198.78
2019-03-16T02:31:07.110Z,100226.98
2019-03-16T02:33:39.533Z,100202.35
2019-03-16T02:36:11.498Z,100200.45
2019-03-16T02:38:43.447Z,100204.22
2019-03-16T02:41:15.407Z,100210.39
2019-03-16T02:43:47.377Z,100211.95
2019-03-16T02:46:19.352Z,100196.06
2019-03-16T02:48:51.457Z,100222.47
2019-03-16T02:51:23.420Z,100229.41
2019-03-16T02:53:55.389Z,100245.52
2019-03-16T02:56:27.413Z,100234.45
2019-03-16T02:58:59.383Z,100234.66
2019-03-16T03:01:31.336Z,100248.70
2019-03-16T03:04:03.288Z,100246.66
2019-03-16T03:06:35.281Z,100261.05
2019-03-16T03:09:09.369Z,100261.73
2019-03-16T03:11:41.337Z,100259.20
2019-03-16T03:14:13.285Z,100255.59
2019-03-16T03:16:45.300Z,100255.87
2019-03-16T03:19:17.244Z,100270.86
2019-03-16T03:21:49.204Z,100268.00
2019-03-16T03:24:21.165Z,100271.44
2019-03-16T03:26:53.111Z,100278.41
2019-03-16T03:29:26.296Z,100280.72
2019-03-16T03:31:58.347Z,100282.48
2019-03-16T03:34:30.301Z,100285.92
2019-03-16T03:37:02.243Z,100297.00
2019-03-16T03:39:34.247Z,100298.00
2019-03-16T03:42:06.261Z,100306.99
2019-03-16T03:44:38.224Z,100296.55
2019-03-16T03:47:10.178Z,100316.74
2019-03-16T03:49:42.123Z,100309.34
2019-03-16T03:52:14.095Z,100319.36
2019-03-16T03:54:46.163Z,100320.72
2019-03-16T03:57:18.453Z,100323.06
2019-03-16T03:59:50.459Z,100321.27
2019-03-16T04:02:22.783Z,100317.73
2019-03-16T04:04:54.891Z,100330.01
2019-03-16T04:07:26.850Z,100331.52
2019-03-16T04:09:58.813Z,100331.19
2019-03-16T04:12:30.770Z,100317.12
2019-03-16T04:15:02.743Z,100331.23
2019-03-16T04:17:34.733Z,100333.62
2019-03-16T04:20:10.859Z,100331.52
2019-03-16T04:22:42.951Z,100332.27
2019-03-16T04:25:14.948Z,100338.34
2019-03-16T04:27:46.932Z,100349.48
2019-03-16T04:30:18.930Z,100334.61
2019-03-16T04:32:51.271Z,100352.30
2019-03-16T04:35:23.217Z,100354.05
2019-03-16T04:37:55.197Z,100361.19
2019-03-16T04:40:27.137Z,100360.70
2019-03-16T04:42:59.103Z,100364.94
2019-03-16T04:45:31.069Z,100371.41
2019-03-16T04:48:03.014Z,100374.98
2019-03-16T04:50:34.977Z,100377.55
2019-03-16T04:53:07.287Z,100376.95
2019-03-16T04:55:39.230Z,100382.02
2019-03-16T04:58:11.175Z,100391.23
2019-03-16T05:00:43.134Z,100395.75
2019-03-16T05:03:15.082Z,100400.83
2019-03-16T05:05:47.037Z,100397.52
2019-03-16T05:08:18.985Z,100394.82
2019-03-16T05:10:50.943Z,100397.16
2019-03-16T05:13:22.896Z,100409.59
2019-03-16T05:15:54.911Z,100414.38
2019-03-16T05:18:26.895Z,100408.68
2019-03-16T05:20:58.907Z,100418.05
2019-03-16T05:23:30.863Z,100420.66
2019-03-16T05:26:02.830Z,100420.12
2019-03-16T05:28:34.859Z,100426.23
2019-03-16T05:31:06.809Z,100433.40
2019-03-16T05:33:46.702Z,100442.95
2019-03-16T05:36:13.975Z,100443.71
2019-03-16T05:38:45.935Z,100450.27
2019-03-16T05:41:17.891Z,100456.33
2019-03-16T05:43:49.907Z,100456.54
2019-03-16T05:46:22.136Z,100454.27
2019-03-16T05:48:54.078Z,100460.45
2019-03-16T05:51:26.040Z,100462.80
2019-03-16T05:53:58.296Z,100468.16
2019-03-16T05:56:30.256Z,100462.68
2019-03-16T05:59:02.197Z,100472.33
2019-03-16T06:01:34.510Z,100474.71
2019-03-16T06:04:06.450Z,100474.76
2019-03-16T06:06:38.794Z,100468.36
2019-03-16T06:09:10.785Z,100476.39
2019-03-16T06:11:42.748Z,100478.44
2019-03-16T06:14:14.749Z,100480.44
2019-03-16T06:16:46.667Z,100488.69
2019-03-16T06:19:18.621Z,100490.86
2019-03-16T06:21:50.660Z,100490.89
2019-03-16T06:24:23.002Z,100490.78
2019-03-16T06:26:54.941Z,100488.83
2019-03-16T06:29:26.905Z,100493.64
2019-03-16T06:31:58.997Z,100510.78
2019-03-16T06:34:30.975Z,100504.69
2019-03-16T06:37:02.923Z,100518.59
2019-03-16T06:39:34.886Z,100512.39
2019-03-16T06:42:06.921Z,100516.94
2019-03-16T06:44:38.870Z,100520.49
2019-03-16T06:47:11.182Z,100529.56
2019-03-16T06:49:43.129Z,100529.72
2019-03-16T06:52:16.687Z,100528.19
2019-03-16T06:54:48.655Z,100525.47
2019-03-16T06:57:21.304Z,100525.25
2019-03-16T06:59:53.560Z,100528.67
2019-03-16T07:02:25.572Z,100529.62
2019-03-16T07:04:57.528Z,100529.22
2019-03-16T07:07:29.474Z,100538.73
2019-03-16T07:10:01.436Z,100543.11
2019-03-16T07:12:34.845Z,100546.45
2019-03-16T07:15:10.528Z,100551.17
2019-03-16T07:17:42.475Z,100554.35
2019-03-16T07:20:16.057Z,100555.31
2019-03-16T07:22:48.006Z,100560.72
2019-03-16T07:25:19.972Z,100554.63
2019-03-16T07:27:51.924Z,100567.20
2019-03-16T07:30:23.884Z,100572.97
2019-03-16T07:32:55.881Z,100571.59
2019-03-16T07:35:27.819Z,100567.39
2019-03-16T07:37:59.772Z,100571.27
2019-03-16T07:40:31.737Z,100573.38
2019-03-16T07:43:03.695Z,100574.07
2019-03-16T07:45:35.650Z,100576.66
2019-03-16T07:48:07.655Z,100575.87
2019-03-16T07:50:39.596Z,100583.08
2019-03-16T07:53:11.568Z,100596.98
2019-03-16T07:55:43.523Z,100600.56
2019-03-16T07:58:15.467Z,100590.81
2019-03-16T08:00:47.712Z,100596.46
2019-03-16T08:03:19.655Z,100591.30
2019-03-16T08:05:51.612Z,100586.78
2019-03-16T08:08:23.576Z,100586.64
2019-03-16T08:10:55.572Z,100582.02
2019-03-16T08:13:27.494Z,100599.06
2019-03-16T08:15:59.486Z,100589.61
2019-03-16T08:18:31.698Z,100581.66
2019-03-16T08:21:03.677Z,100589.81
2019-03-16T08:23:36.041Z,100588.25
2019-03-16T08:26:07.995Z,100584.63
2019-03-16T08:28:39.975Z,100587.13
2019-03-16T08:31:13.524Z,100597.48
2019-03-16T08:33:45.936Z,100593.79
2019-03-16T08:36:17.888Z,100583.17
2019-03-16T08:38:49.851Z,100590.19
2019-03-16T08:41:21.796Z,100586.95
2019-03-16T08:43:53.761Z,100583.27
2019-03-16T08:46:26.068Z,100583.87
2019-03-16T08:49:01.101Z,100586.19
2019-03-16T08:51:33.060Z,100597.38
2019-03-16T08:54:07.097Z,100572.45
2019-03-16T08:56:39.124Z,100590.44
2019-03-16T08:59:11.375Z,100577.30
2019-03-16T09:01:43.334Z,100584.65
2019-03-16T09:04:15.652Z,100575.06
2019-03-16T09:06:47.644Z,100570.05
2019-03-16T09:09:22.517Z,100567.03
2019-03-16T09:11:54.475Z,100575.95
2019-03-16T09:14:26.439Z,100576.16
2019-03-16T09:16:58.501Z,100584.72
2019-03-16T09:19:30.515Z,100576.72
2019-03-16T09:22:02.480Z,100588.28
2019-03-16T09:24:34.476Z,100584.97
2019-03-16T09:27:06.425Z,100590.48
2019-03-16T09:29:38.386Z,100587.57
2019-03-16T09:32:10.342Z,100598.17
2019-03-16T09:34:42.335Z,100606.31
2019-03-16T09:37:14.270Z,100610.06
2019-03-16T09:39:46.242Z,100608.72
2019-03-16T09:42:18.204Z,100616.77
2019-03-16T09:44:50.459Z,100617.08
2019-03-16T09:47:22.483Z,100612.39
2019-03-16T09:49:54.457Z,100619.02
2019-03-16T09:52:26.432Z,100614.20
2019-03-16T09:54:58.394Z,100622.44
2019-03-16T09:57:34.948Z,100629.05
2019-03-16T10:00:14.800Z,100631.22
2019-03-16T10:02:46.935Z,100631.44
2019-03-16T10:05:18.884Z,100631.86
2019-03-16T10:07:50.876Z,100624.42
2019-03-16T10:10:23.119Z,100633.44
2019-03-16T10:12:55.070Z,100631.64
2019-03-16T10:15:27.335Z,100623.95
2019-03-16T10:17:59.369Z,100621.25
2019-03-16T10:20:31.378Z,100626.16
2019-03-16T10:23:03.388Z,100622.53
2019-03-16T10:25:35.382Z,100619.38
2019-03-16T10:28:07.344Z,100615.23
2019-03-16T10:30:39.315Z,100605.16
2019-03-16T10:33:11.419Z,100606.52
2019-03-16T10:35:43.413Z,100616.44
2019-03-16T10:38:15.723Z,100608.64
2019-03-16T10:40:47.825Z,100596.77
2019-03-16T10:43:19.787Z,100599.73
2019-03-16T10:45:51.741Z,100592.27
2019-03-16T10:48:23.738Z,100600.94
2019-03-16T10:50:55.655Z,100594.40
2019-03-16T10:53:27.620Z,100593.75
2019-03-16T10:55:59.576Z,100598.45
2019-03-16T10:58:31.845Z,100598.46
2019-03-16T11:01:03.814Z,100592.67
2019-03-16T11:03:36.081Z,100600.43
2019-03-16T11:06:08.065Z,100594.71
2019-03-16T11:08:40.047Z,100590.83
2019-03-16T11:11:12.157Z,100596.24
2019-03-16T11:13:44.139Z,100596.73
2019-03-16T11:16:16.109Z,100590.12
2019-03-16T11:18:48.372Z,100575.64
2019-03-16T11:21:20.342Z,100582.63
2019-03-16T11:23:52.301Z,100577.03
2019-03-16T11:26:24.665Z,100582.20
2019-03-16T11:29:04.548Z,100574.75
2019-03-16T11:31:30.355Z,100567.89
2019-03-16T11:34:02.310Z,100561.17
2019-03-16T11:36:34.269Z,100559.84
2019-03-16T11:39:09.015Z,100560.98
2019-03-16T11:41:41.366Z,100565.63
2019-03-16T11:44:13.647Z,100567.38
2019-03-16T11:46:45.611Z,100558.52
2019-03-16T11:49:17.586Z,100549.00
2019-03-16T11:51:49.836Z,100553.43
2019-03-16T11:54:21.873Z,100548.76
2019-03-16T11:56:53.854Z,100548.48
2019-03-16T11:59:26.135Z,100538.05
2019-03-16T12:02:05.069Z,100540.30
2019-03-16T12:04:31.788Z,100530.28
2019-03-16T12:07:03.798Z,100529.38
2019-03-16T12:09:35.775Z,100531.27
2019-03-16T12:12:07.742Z,100529.03
2019-03-16T12:14:40.111Z,100528.61
2019-03-16T12:17:12.089Z,100525.18
2019-03-16T12:19:44.452Z,100530.34
2019-03-16T12:22:16.881Z,100527.80
2019-03-16T12:24:48.897Z,100521.66
2019-03-16T12:27:20.846Z,100502.99
2019-03-16T12:29:52.900Z,100518.92
2019-03-16T12:32:27.029Z,100530.59
2019-03-16T12:34:59.001Z,100537.34
2019-03-16T12:37:30.948Z,100535.76
2019-03-16T12:40:02.996Z,100532.67
2019-03-16T12:42:35.256Z,100536.84
2019-03-16T12:45:14.411Z,100534.91
2019-03-16T12:47:46.667Z,100544.11
2019-03-16T12:50:18.931Z,100539.14
2019-03-16T12:52:51.332Z,100542.16
2019-03-16T12:55:23.359Z,100527.66
2019-03-16T12:57:55.749Z,100523.30
2019-03-16T13:00:28.225Z,100531.99
2019-03-16T13:03:00.456Z,100522.30
2019-03-16T13:05:32.411Z,100523.12
2019-03-16T13:08:04.385Z,100528.09
2019-03-16T13:10:36.340Z,100528.23
2019-03-16T13:13:08.321Z,100526.06
2019-03-16T13:15:40.266Z,100523.07
2019-03-16T13:18:12.581Z,100518.87
2019-03-16T13:20:44.535Z,100512.94
2019-03-16T13:23:17.240Z,100507.92
2019-03-16T13:25:49.195Z,100515.13
2019-03-16T13:28:21.242Z,100512.88
2019-03-16T13:30:53.320Z,100501.58
2019-03-16T13:33:25.273Z,100506.09
2019-03-16T13:35:57.242Z,100507.81
2019-03-16T13:38:29.293Z,100507.17
2019-03-16T13:41:01.260Z,100500.61
2019-03-16T13:43:33.549Z,100497.95
2019-03-16T13:46:06.070Z,100494.42
2019-03-16T13:48:39.422Z,100491.78
2019-03-16T13:51:11.648Z,100490.75
2019-03-16T13:53:43.591Z,100484.64
2019-03-16T13:56:15.588Z,100481.58
2019-03-16T13:58:50.006Z,100477.15
2019-03-16T14:01:22.311Z,100477.12
2019-03-16T14:03:54.270Z,100472.00
2019-03-16T14:06:26.246Z,100470.64
2019-03-16T14:08:58.676Z,100475.59
2019-03-16T14:11:30.680Z,100472.72
2019-03-16T14:14:04.458Z,100473.91
2019-03-16T14:16:36.588Z,100464.03
2019-03-16T14:19:08.912Z,100460.13
2019-03-16T14:21:41.218Z,100458.68
2019-03-16T14:24:13.178Z,100451.44
2019-03-16T14:26:45.119Z,100451.56
2019-03-16T14:29:17.092Z,100456.20
2019-03-16T14:31:49.273Z,100443.50
2019-03-16T14:34:21.231Z,100439.75
2019-03-16T14:36:53.179Z,100445.59
2019-03-16T14:39:25.124Z,100438.98
2019-03-16T14:41:57.072Z,100444.65
2019-03-16T14:44:29.355Z,100434.88
2019-03-16T14:47:03.600Z,100436.64
2019-03-16T14:49:35.657Z,100423.47
2019-03-16T14:52:08.348Z,100425.05
2019-03-16T14:54:40.337Z,100417.53
2019-03-16T14:57:12.266Z,100414.63
2019-03-16T14:59:44.525Z,100409.25
2019-03-16T15:02:16.466Z,100413.75
2019-03-16T15:04:48.423Z,100412.91
2019-03-16T15:07:20.399Z,100413.41
2019-03-16T15:09:52.434Z,100398.72
2019-03-16T15:12:24.656Z,100404.40
2019-03-16T15:14:56.919Z,100402.02
2019-03-16T15:17:29.187Z,100395.02
2019-03-16T15:20:06.316Z,100386.06
2019-03-16T15:22:38.362Z,100388.61
2019-03-16T15:25:12.111Z,100378.50
2019-03-16T15:27:44.415Z,100374.16
2019-03-16T15:30:18.514Z,100360.97
2019-03-16T15:32:50.612Z,100363.98
2019-03-16T15:35:22.595Z,100358.08
2019-03-16T15:37:54.543Z,100354.00
2019-03-16T15:40:26.516Z,100344.22
2019-03-16T15:42:58.462Z,100338.09
2019-03-16T15:45:31.950Z,100331.48
2019-03-16T15:48:04.206Z,100324.67
2019-03-16T15:50:36.420Z,100327.26
2019-03-16T15:53:08.531Z,100316.81
2019-03-16T15:55:40.456Z,100310.84
2019-03-16T15:58:12.395Z,100299.42
2019-03-16T16:00:44.371Z,100297.53
2019-03-16T16:03:16.319Z,100291.23
2019-03-16T16:05:49.326Z,100285.66
2019-03-16T16:08:21.279Z,100286.97
2019-03-16T16:11:00.953Z,100281.70
2019-03-16T16:13:26.986Z,100277.70
2019-03-16T16:15:58.935Z,100274.40
2019-03-16T16:18:35.921Z,100265.80
2019-03-16T16:21:08.155Z,100268.16
2019-03-16T16:23:40.111Z,100271.02
2019-03-16T16:26:12.062Z,100260.38
2019-03-16T16:28:44.016Z,100263.94
2019-03-16T16:31:16.788Z,100262.88
2019-03-16T16:33:48.791Z,100257.02
2019-03-16T16:36:20.832Z,100249.48
2019-03-16T16:38:53.120Z,100235.66
2019-03-16T16:41:25.849Z,100174.38
2019-03-16T16:43:58.034Z,100209.19
2019-03-16T16:46:30.067Z,100210.52
2019-03-16T16:49:02.020Z,100203.65
2019-03-16T16:51:33.999Z,100204.97
2019-03-16T16:54:05.939Z,100203.81
2019-03-16T16:56:37.957Z,100206.84
2019-03-16T16:59:09.899Z,100199.91
2019-03-16T17:01:41.901Z,100199.81
2019-03-16T17:04:13.938Z,100189.64
2019-03-16T17:06:45.900Z,100188.27
2019-03-16T17:09:17.844Z,100190.63
2019-03-16T17:11:50.092Z,100193.84
2019-03-16T17:14:22.299Z,100184.13
2019-03-16T17:16:54.643Z,100183.39
2019-03-16T17:19:26.592Z,100174.41
2019-03-16T17:21:58.532Z,100177.43
2019-03-16T17:24:30.485Z,100173.52
2019-03-16T17:27:02.507Z,100162.34
2019-03-16T17:29:34.475Z,100164.20
2019-03-16T17:32:06.457Z,100155.41
2019-03-16T17:34:41.138Z,100153.52
2019-03-16T17:37:12.392Z,100145.01
2019-03-16T17:39:44.947Z,100141.93
2019-03-16T17:42:17.451Z,100151.08
2019-03-16T17:44:51.003Z,100153.52
2019-03-16T17:47:23.252Z,100143.02
2019-03-16T17:49:55.211Z,100141.20
2019-03-16T17:52:27.177Z,100144.27
2019-03-16T17:54:59.140Z,100149.37
2019-03-16T17:57:31.430Z,100155.59
2019-03-16T18:00:03.453Z,100140.19
2019-03-16T18:02:35.418Z,100141.18
2019-03-16T18:05:09.082Z,100134.83
2019-03-16T18:07:41.020Z,100137.77
2019-03-16T18:10:15.015Z,100126.31
2019-03-16T18:12:46.957Z,100129.73
2019-03-16T18:15:20.934Z,100127.55
2019-03-16T18:17:52.852Z,100125.52
2019-03-16T18:20:24.820Z,100120.05
2019-03-16T18:22:56.772Z,100123.43
2019-03-16T18:25:28.727Z,100120.98
2019-03-16T18:28:00.747Z,100112.75
2019-03-16T18:30:33.041Z,100112.30
2019-03-16T18:33:05.068Z,100109.05
2019-03-16T18:35:37.282Z,100102.51
2019-03-16T18:38:09.235Z,100100.15
2019-03-16T18:40:41.171Z,100102.86
2019-03-16T18:43:13.123Z,100104.61
2019-03-16T18:45:45.063Z,100092.24
2019-03-16T18:48:17.015Z,100091.84
2019-03-16T18:50:49.103Z,100091.63
2019-03-16T18:53:21.060Z,100097.25
2019-03-16T18:55:53.978Z,100088.03
2019-03-16T18:58:36.615Z,100079.53
2019-03-16T19:00:59.604Z,100072.27
2019-03-16T19:03:31.550Z,100067.30
2019-03-16T19:06:03.517Z,100070.91
2019-03-16T19:08:35.579Z,100077.41
2019-03-16T19:11:07.543Z,100071.66
2019-03-16T19:13:39.494Z,100069.41
2019-03-16T19:16:11.449Z,100071.34
2019-03-16T19:18:43.872Z,100065.61
2019-03-16T19:21:15.811Z,100066.70
2019-03-16T19:23:47.762Z,100060.17
2019-03-16T19:26:19.773Z,100065.34
2019-03-16T19:28:51.893Z,100063.90
2019-03-16T19:31:23.828Z,100057.52
2019-03-16T19:33:55.790Z,100056.93
2019-03-16T19:36:27.197Z,100058.76
2019-03-16T19:38:59.163Z,100056.27
2019-03-16T19:41:31.093Z,100051.39
2019-03-16T19:44:03.028Z,100047.98
2019-03-16T19:46:34.955Z,100040.63
2019-03-16T19:49:07.243Z,100039.20
2019-03-16T19:51:39.159Z,100028.13
2019-03-16T19:54:11.083Z,100033.56
2019-03-16T19:56:42.998Z,100027.48
2019-03-16T19:59:14.940Z,100031.45
2019-03-16T20:01:47.251Z,100028.13
2019-03-16T20:04:19.180Z,100027.25
2019-03-16T20:06:51.221Z,100013.81
2019-03-16T20:09:24.613Z,100010.83
2019-03-16T20:11:56.813Z,100010.09
2019-03-16T20:14:29.421Z,100001.14
2019-03-16T20:17:01.354Z,100002.77
2019-03-16T20:19:33.595Z,100006.34
2019-03-16T20:22:05.565Z,99994.64
2019-03-16T20:24:37.525Z,99998.47
2019-03-16T20:27:09.867Z,99991.39
2019-03-16T20:29:41.801Z,99995.84
2019-03-16T20:32:13.739Z,99994.80
2019-03-16T20:34:45.666Z,99998.81
2019-03-16T20:37:17.777Z,99997.08
2019-03-16T20:39:49.716Z,100004.86
2019-03-16T20:42:21.663Z,100004.23
2019-03-16T20:44:53.610Z,99999.88
2019-03-16T20:47:25.555Z,100002.48
2019-03-16T20:49:57.530Z,99994.69
2019-03-16T20:52:29.794Z,99996.58
2019-03-16T20:55:02.129Z,99988.95
2019-03-16T20:57:34.145Z,100002.69
2019-03-16T21:00:13.652Z,99999.97
2019-03-16T21:02:45.788Z,99995.41
2019-03-16T21:05:17.801Z,99987.33
2019-03-16T21:07:49.734Z,99993.05
2019-03-16T21:10:21.729Z,100002.06
2019-03-16T21:12:53.696Z,99997.33
2019-03-16T21:15:25.641Z,99994.64
2019-03-16T21:17:57.599Z,99994.16
2019-03-16T21:20:29.569Z,99987.31
2019-03-16T21:23:01.515Z,99981.02
2019-03-16T21:25:33.456Z,99983.89
2019-03-16T21:28:05.394Z,99980.64
2019-03-16T21:30:37.321Z,99982.48
2019-03-16T21:33:09.284Z,99972.84
2019-03-16T21:35:41.254Z,99971.98
2019-03-16T21:38:13.183Z,99979.84
2019-03-16T21:40:45.119Z,99970.48
2019-03-16T21:43:17.061Z,99983.73
2019-03-16T21:45:49.036Z,99981.69
2019-03-16T21:48:20.977Z,99979.73
2019-03-16T21:50:52.928Z,99973.89
2019-03-16T21:53:24.861Z,99975.45
2019-03-16T21:55:56.823Z,99969.00
2019-03-16T21:58:28.785Z,99966.19
2019-03-16T22:01:01.048Z,99965.53
2019-03-16T22:06:07.100Z,99958.80
2019-03-16T22:08:26.369Z,99960.30
2019-03-16T22:08:39.114Z,99957.66
2019-03-16T22:11:11.116Z,99946.55
2019-03-16T22:13:43.048Z,99938.63
2019-03-16T22:16:14.990Z,99939.94
2019-03-16T22:18:46.916Z,99932.25
2019-03-16T22:21:18.869Z,99933.23
2019-03-16T22:23:50.788Z,99930.95
2019-03-16T22:26:22.698Z,99929.89
2019-03-16T22:28:54.647Z,99923.80
2019-03-16T22:31:26.951Z,99919.81
2019-03-16T22:33:58.848Z,99907.70
2019-03-16T22:36:30.826Z,99904.23
2019-03-16T22:39:02.745Z,99904.61
2019-03-16T22:41:34.687Z,99901.22
2019-03-16T22:44:06.940Z,99900.85
2019-03-16T22:46:39.171Z,99889.49
2019-03-16T22:49:11.369Z,99887.81
2019-03-16T22:51:43.251Z,99870.62
2019-03-16T22:54:15.362Z,99875.28
2019-03-16T22:56:47.684Z,99865.06
2019-03-16T22:59:19.646Z,99868.74
2019-03-16T23:01:51.581Z,99864.25
2019-03-16T23:04:23.517Z,99858.36
2019-03-16T23:06:55.420Z,99861.92
2019-03-16T23:09:28.518Z,99852.61
2019-03-16T23:12:00.438Z,99848.80
2019-03-16T23:14:32.383Z,99853.79
2019-03-16T23:17:04.298Z,99843.58
2019-03-16T23:19:36.259Z,99842.43
2019-03-16T23:22:08.262Z,99840.71
2019-03-16T23:24:40.195Z,99833.23
2019-03-16T23:27:12.129Z,99831.39
2019-03-16T23:29:44.046Z,99831.15
2019-03-16T23:32:16.003Z,99829.68
2019-03-16T23:34:47.956Z,99823.55
2019-03-16T23:37:19.867Z,99817.75
2019-03-16T23:39:52.114Z,99822.36
2019-03-16T23:42:24.565Z,99822.41
2019-03-16T23:44:56.494Z,99821.27
2019-03-16T23:47:28.446Z,99821.67
2019-03-16T23:50:13.424Z,99821.51
2019-03-16T23:52:45.645Z,99820.36
2019-03-16T23:55:17.983Z,99810.06
2019-03-16T23:57:49.900Z,99814.60
